Time;durP1;ratioP1;P1;durP2;ratioP2;P2;SDS_P1;SDS_P2;PMS_P1;PMS_P2;Temp;Humidity;BMP_temperature;BMP_pressure;BME280_temperature;BME280_humidity;BME280_pressure;Samples;Min_cycle;Max_cycle;Signal;HPM_P1;HPM_P2
2022/06/10 00:00:09;;;;;;;6.85;5.10;;;10.30;99.90;;;;;;5002684;28;20077;-79
2022/06/10 00:02:50;;;;;;;7.68;4.85;;;10.30;99.90;;;;;;4995146;28;20033;-79
2022/06/10 00:05:36;;;;;;;7.85;5.63;;;10.30;99.90;;;;;;4993411;28;20484;-79
2022/06/10 00:08:12;;;;;;;9.13;5.35;;;10.40;99.90;;;;;;5015225;28;20034;-79
2022/06/10 00:10:49;;;;;;;8.70;5.00;;;10.40;99.90;;;;;;4996994;28;20038;-79
2022/06/10 00:13:20;;;;;;;8.63;5.43;;;10.40;99.90;;;;;;4998821;28;20231;-79
2022/06/10 00:15:54;;;;;;;7.82;5.15;;;10.40;99.90;;;;;;5029265;28;20056;-79
2022/06/10 00:18:32;;;;;;;8.80;4.45;;;10.30;99.90;;;;;;5012832;28;20500;-79
2022/06/10 00:21:06;;;;;;;7.00;5.00;;;10.30;99.90;;;;;;5007206;28;20670;-79
2022/06/10 00:23:42;;;;;;;7.82;4.57;;;10.30;99.90;;;;;;5006920;28;20043;-79
2022/06/10 00:26:08;;;;;;;7.85;4.70;;;10.30;99.90;;;;;;5025611;28;20056;-79
2022/06/10 00:28:37;;;;;;;6.68;4.35;;;10.20;99.90;;;;;;5000022;28;20563;-79
2022/06/10 00:31:06;;;;;;;6.72;4.75;;;10.20;99.90;;;;;;5017846;28;20512;-79
2022/06/10 00:33:35;;;;;;;6.95;4.88;;;10.20;99.90;;;;;;4971093;28;20057;-79
2022/06/10 00:36:09;;;;;;;9.05;5.30;;;10.10;99.90;;;;;;4977444;28;20042;-79
2022/06/10 00:38:38;;;;;;;10.82;4.90;;;10.20;99.90;;;;;;4994663;28;20155;-79
2022/06/10 00:41:15;;;;;;;6.10;4.05;;;10.00;99.90;;;;;;5000790;28;20042;-79
2022/06/10 00:43:41;;;;;;;6.45;4.43;;;10.10;99.90;;;;;;5020770;28;20037;-79
2022/06/10 00:46:43;;;;;;;6.63;4.75;;;10.00;99.90;;;;;;5003185;28;20497;-79
2022/06/10 00:49:17;;;;;;;7.07;4.53;;;10.00;99.90;;;;;;4954000;28;20133;-79
2022/06/10 00:51:49;;;;;;;6.35;4.50;;;10.00;99.90;;;;;;4982470;28;20064;-79
2022/06/10 00:54:18;;;;;;;7.32;4.22;;;10.00;99.90;;;;;;4995813;28;20046;-79
2022/06/10 00:57:07;;;;;;;8.05;4.95;;;9.90;99.90;;;;;;4989523;28;20341;-79
2022/06/10 00:59:45;;;;;;;7.55;4.53;;;9.90;99.90;;;;;;4998479;28;20443;-79
2022/06/10 01:02:22;;;;;;;6.70;4.15;;;9.80;99.90;;;;;;5005687;28;20029;-79
2022/06/10 01:04:50;;;;;;;6.45;4.28;;;9.80;99.90;;;;;;5000809;28;20650;-80
2022/06/10 01:07:19;;;;;;;5.85;4.65;;;9.80;99.90;;;;;;5007297;28;20073;-79
2022/06/10 01:09:49;;;;;;;8.32;4.57;;;9.80;99.90;;;;;;4983611;28;20040;-79
2022/06/10 01:12:39;;;;;;;9.10;4.88;;;9.70;99.90;;;;;;5013158;28;20038;-79
2022/06/10 01:15:56;;;;;;;8.00;4.70;;;9.70;99.90;;;;;;4991176;28;20516;-79
2022/06/10 01:18:43;;;;;;;7.40;5.20;;;9.70;99.90;;;;;;4976016;28;20543;-79
2022/06/10 01:21:32;;;;;;;8.05;5.40;;;9.80;99.90;;;;;;5013534;28;20061;-79
2022/06/10 01:24:16;;;;;;;7.45;4.90;;;9.80;99.90;;;;;;5005957;28;20041;-79
2022/06/10 01:30:19;;;;;;;8.32;5.07;;;9.70;99.90;;;;;;5013874;28;20522;-79
2022/06/10 01:33:02;;;;;;;6.03;4.70;;;9.80;99.90;;;;;;5021644;28;20045;-79
2022/06/10 01:36:00;;;;;;;7.60;5.38;;;9.70;99.90;;;;;;5005782;28;20042;-79
2022/06/10 01:38:56;;;;;;;8.15;4.60;;;9.70;99.90;;;;;;4996228;28;20041;-79
2022/06/10 01:41:39;;;;;;;7.80;5.43;;;9.60;99.90;;;;;;4996865;28;20100;-79
2022/06/10 01:44:31;;;;;;;8.30;4.60;;;9.60;99.90;;;;;;5002557;28;20178;-79
2022/06/10 01:47:19;;;;;;;8.35;4.95;;;9.60;99.90;;;;;;5035241;28;20048;-79
2022/06/10 01:50:02;;;;;;;6.22;4.97;;;9.60;99.90;;;;;;5019145;28;20378;-79
2022/06/10 01:52:42;;;;;;;7.28;4.90;;;9.60;99.90;;;;;;4984611;28;20392;-79
2022/06/10 01:55:13;;;;;;;8.18;4.28;;;9.50;99.90;;;;;;4998734;28;20038;-79
2022/06/10 01:58:15;;;;;;;6.90;4.93;;;9.50;99.90;;;;;;4996672;28;20038;-79
2022/06/10 02:00:46;;;;;;;8.70;4.82;;;9.40;99.90;;;;;;4987320;28;20053;-79
2022/06/10 02:03:22;;;;;;;7.80;5.10;;;9.40;99.90;;;;;;5025011;28;20045;-79
2022/06/10 02:06:02;;;;;;;7.85;5.30;;;9.30;99.90;;;;;;5014090;28;20041;-79
2022/06/10 02:08:56;;;;;;;6.88;5.07;;;9.30;99.90;;;;;;5004532;28;20041;-79
2022/06/10 02:11:26;;;;;;;8.05;4.95;;;9.30;99.90;;;;;;4980848;28;20128;-79
2022/06/10 02:14:02;;;;;;;8.43;4.77;;;9.20;99.90;;;;;;4982426;28;20038;-79
2022/06/10 02:16:36;;;;;;;7.15;4.63;;;9.20;99.90;;;;;;4996678;28;20292;-79
2022/06/10 02:19:20;;;;;;;9.23;5.15;;;9.20;99.90;;;;;;4980765;28;20053;-79
2022/06/10 02:22:34;;;;;;;5.57;4.40;;;9.30;99.90;;;;;;5000909;28;20034;-79
2022/06/10 02:25:13;;;;;;;7.18;4.57;;;9.20;99.90;;;;;;5011553;28;20450;-79
2022/06/10 02:27:43;;;;;;;9.82;5.25;;;9.20;99.90;;;;;;4993617;28;20049;-79
2022/06/10 02:30:14;;;;;;;9.93;5.00;;;9.20;99.90;;;;;;4995683;28;20033;-79
2022/06/10 02:32:47;;;;;;;11.02;5.35;;;9.20;99.90;;;;;;4986699;28;20053;-79
2022/06/10 02:35:25;;;;;;;9.18;5.30;;;9.20;99.90;;;;;;5007121;28;20037;-79
2022/06/10 02:37:58;;;;;;;8.93;5.45;;;9.30;99.90;;;;;;5007729;28;20480;-79
2022/06/10 02:40:36;;;;;;;;;;;9.30;99.90;;;;;;4998602;28;20165;-79
2022/06/10 02:43:18;;;;;;;7.60;4.82;;;9.40;99.90;;;;;;4992576;28;19942;-79
2022/06/10 02:46:09;;;;;;;9.13;5.00;;;9.40;99.90;;;;;;5016190;28;20046;-79
2022/06/10 02:49:00;;;;;;;6.13;5.10;;;9.40;99.90;;;;;;5001627;28;20085;-79
2022/06/10 02:51:36;;;;;;;6.38;5.10;;;9.40;99.90;;;;;;4999714;28;20459;-79
2022/06/10 02:54:06;;;;;;;7.22;5.40;;;9.30;99.90;;;;;;5010834;28;20045;-79
2022/06/10 02:56:43;;;;;;;10.10;5.50;;;9.30;99.90;;;;;;4997733;28;20080;-79
2022/06/10 03:02:13;;;;;;;11.55;5.15;;;9.30;99.90;;;;;;5020880;28;20064;-79
2022/06/10 03:05:01;;;;;;;8.90;5.50;;;9.30;99.90;;;;;;4996780;28;20060;-79
2022/06/10 03:07:48;;;;;;;9.48;4.97;;;9.40;99.90;;;;;;5002899;28;20037;-79
2022/06/10 03:10:32;;;;;;;8.38;5.50;;;9.40;99.90;;;;;;4974585;28;20046;-79
2022/06/10 03:13:32;;;;;;;12.70;6.10;;;9.40;99.90;;;;;;5015522;28;20025;-79
2022/06/10 03:16:07;;;;;;;8.85;5.40;;;9.40;99.90;;;;;;5010039;28;20041;-79
2022/06/10 03:19:09;;;;;;;7.47;5.20;;;9.40;99.90;;;;;;5007098;28;20053;-79
2022/06/10 03:22:01;;;;;;;8.55;5.20;;;9.40;99.90;;;;;;4993206;28;20050;-79
2022/06/10 03:24:30;;;;;;;6.85;5.20;;;9.40;99.90;;;;;;4984479;28;20140;-79
2022/06/10 03:27:22;;;;;;;9.93;5.30;;;9.40;99.90;;;;;;4995606;28;20120;-79
2022/06/10 03:29:51;;;;;;;7.75;5.45;;;9.40;99.90;;;;;;4982599;28;20394;-79
2022/06/10 03:32:34;;;;;;;7.13;5.25;;;9.40;99.90;;;;;;5007661;28;20042;-79
2022/06/10 03:35:15;;;;;;;7.30;5.40;;;9.50;99.90;;;;;;4988129;28;20084;-79
2022/06/10 03:37:47;;;;;;;7.93;5.60;;;9.50;99.90;;;;;;5010375;28;20045;-79
2022/06/10 03:40:20;;;;;;;8.88;5.15;;;9.50;99.90;;;;;;4995212;28;20488;-79
2022/06/10 03:42:50;;;;;;;10.70;5.85;;;9.60;99.90;;;;;;5005948;28;20076;-79
2022/06/10 03:45:33;;;;;;;11.32;5.75;;;9.60;99.90;;;;;;5031773;28;20523;-80
2022/06/10 03:48:00;;;;;;;11.83;5.70;;;9.60;99.90;;;;;;5000210;28;20460;-79
2022/06/10 03:50:38;;;;;;;11.82;5.07;;;9.70;99.90;;;;;;4989378;28;20295;-79
2022/06/10 03:53:04;;;;;;;9.30;6.07;;;9.70;99.90;;;;;;4995081;28;20104;-79
2022/06/10 03:55:30;;;;;;;7.95;5.65;;;9.80;99.90;;;;;;4995038;28;20049;-79
2022/06/10 03:57:59;;;;;;;10.70;6.03;;;9.80;99.90;;;;;;4995386;28;20046;-79
2022/06/10 04:00:29;;;;;;;9.65;5.93;;;9.80;99.90;;;;;;4993643;28;20042;-79
2022/06/10 04:02:55;;;;;;;13.52;6.28;;;9.90;99.90;;;;;;4990360;28;20504;-79
2022/06/10 04:05:24;;;;;;;9.25;5.47;;;9.90;99.90;;;;;;4995644;28;20084;-80
2022/06/10 04:07:50;;;;;;;10.18;6.43;;;9.90;99.90;;;;;;4995551;28;20087;-80
2022/06/10 04:10:26;;;;;;;8.32;5.72;;;10.00;99.90;;;;;;5011721;28;20441;-80
2022/06/10 04:12:53;;;;;;;10.38;6.13;;;10.10;99.90;;;;;;5001184;28;20100;-79
2022/06/10 04:15:27;;;;;;;8.13;6.07;;;10.10;99.90;;;;;;5000343;28;20037;-80
2022/06/10 04:17:57;;;;;;;11.30;6.78;;;10.20;99.90;;;;;;5011930;28;20572;-79
2022/06/10 04:20:31;;;;;;;11.98;6.47;;;10.10;99.90;;;;;;4993865;28;20412;-79
2022/06/10 04:23:34;;;;;;;8.70;7.05;;;10.30;99.90;;;;;;5022659;28;20038;-80
2022/06/10 04:26:47;;;;;;;8.80;6.43;;;10.50;99.90;;;;;;4984098;28;20103;-79
2022/06/10 04:29:26;;;;;;;8.87;5.63;;;11.10;99.90;;;;;;4998259;28;20455;-79
2022/06/10 04:32:25;;;;;;;9.18;5.93;;;11.40;99.90;;;;;;4992937;28;20116;-79
2022/06/10 04:35:28;;;;;;;7.32;5.45;;;11.90;99.90;;;;;;4992971;28;20033;-80
2022/06/10 04:38:48;;;;;;;9.32;5.10;;;12.20;99.90;;;;;;4991528;28;20045;-80
2022/06/10 04:41:49;;;;;;;6.60;4.80;;;12.50;99.90;;;;;;4997563;28;20042;-80
2022/06/10 04:44:42;;;;;;;6.63;4.68;;;12.90;99.90;;;;;;5004996;28;20518;-80
2022/06/10 04:47:44;;;;;;;10.40;4.97;;;13.40;99.90;;;;;;4996926;28;20046;-80
2022/06/10 04:50:58;;;;;;;7.70;4.43;;;13.70;99.90;;;;;;5014901;28;20144;-80
2022/06/10 04:53:51;;;;;;;7.38;4.20;;;14.50;99.90;;;;;;5006913;28;20074;-80
2022/06/10 05:00:29;;;;;;;6.68;3.28;;;15.30;99.90;;;;;;4882436;29;20531;-80
2022/06/10 05:04:07;;;;;;;5.95;3.47;;;15.00;99.90;;;;;;4979319;28;20523;-80
2022/06/10 05:07:43;;;;;;;6.70;3.22;;;14.70;99.90;;;;;;4975024;28;20068;-80
2022/06/10 05:10:59;;;;;;;8.75;3.58;;;14.30;99.90;;;;;;4992771;28;20042;-80
2022/06/10 05:14:03;;;;;;;10.15;3.75;;;14.10;99.90;;;;;;5010976;22;20074;-83
2022/06/10 05:16:29;;;;;;;6.28;3.22;;;14.00;99.90;;;;;;5008785;28;20495;-84
2022/06/10 05:18:55;;;;;;;7.43;3.40;;;13.90;99.90;;;;;;5022157;28;20547;-84
2022/06/10 05:21:21;;;;;;;6.28;3.45;;;13.80;99.90;;;;;;5009798;28;20056;-84
2022/06/10 05:23:47;;;;;;;6.75;4.20;;;13.80;99.90;;;;;;4988288;28;20500;-84
2022/06/10 05:26:14;;;;;;;10.75;3.60;;;13.80;99.90;;;;;;4979170;28;20035;-84
2022/06/10 05:28:40;;;;;;;5.65;3.55;;;13.80;99.90;;;;;;4971498;28;20046;-84
2022/06/10 05:31:05;;;;;;;8.55;4.10;;;13.80;99.90;;;;;;4976874;28;20396;-83
2022/06/10 05:36:18;;;;;;;7.22;3.75;;;13.80;99.90;;;;;;4955117;28;20092;-81
2022/06/10 05:38:44;;;;;;;6.88;4.10;;;13.80;99.90;;;;;;4994832;28;20037;-81
2022/06/10 05:43:55;;;;;;;10.65;4.30;;;13.90;99.90;;;;;;5000879;28;20041;-82
2022/06/10 05:46:21;;;;;;;7.43;3.40;;;14.00;99.90;;;;;;4997338;28;20056;-82
2022/06/10 05:48:46;;;;;;;8.23;3.92;;;14.00;99.90;;;;;;4974337;28;20077;-82
2022/06/10 05:51:12;;;;;;;5.45;3.80;;;14.10;99.90;;;;;;4970058;28;20069;-82
2022/06/10 05:53:37;;;;;;;7.35;3.88;;;14.10;99.90;;;;;;4987643;28;20045;-82
2022/06/10 05:56:03;;;;;;;10.30;3.92;;;14.10;99.90;;;;;;5013430;28;20048;-82
2022/06/10 05:58:30;;;;;;;8.75;4.30;;;14.10;99.90;;;;;;4997403;28;20062;-82
2022/06/10 06:00:56;;;;;;;8.10;3.92;;;14.20;99.90;;;;;;4968539;28;20121;-82
2022/06/10 06:03:22;;;;;;;7.50;3.80;;;14.30;99.90;;;;;;4985900;28;20042;-82
2022/06/10 06:05:48;;;;;;;7.63;3.97;;;14.40;99.90;;;;;;4993875;28;20043;-82
2022/06/10 06:08:13;;;;;;;6.28;3.90;;;14.40;99.90;;;;;;4976952;28;20046;-81
2022/06/10 06:10:39;;;;;;;5.90;3.70;;;14.50;99.90;;;;;;4986940;28;20027;-81
2022/06/10 06:13:04;;;;;;;8.05;3.70;;;14.40;99.90;;;;;;4969189;28;20038;-82
2022/06/10 06:15:30;;;;;;;7.75;3.78;;;14.40;99.90;;;;;;4971729;28;20425;-80
2022/06/10 06:17:56;;;;;;;6.53;4.10;;;14.50;99.90;;;;;;4973600;28;20034;-81
2022/06/10 06:20:23;;;;;;;8.43;4.45;;;14.40;99.90;;;;;;4982601;28;20042;-81
2022/06/10 06:22:49;;;;;;;7.82;3.80;;;14.50;99.90;;;;;;4959210;28;20073;-81
2022/06/10 06:25:16;;;;;;;8.93;4.50;;;14.60;99.90;;;;;;4974068;28;20513;-81
2022/06/10 06:27:44;;;;;;;7.38;4.18;;;14.60;99.90;;;;;;4958012;28;20047;-81
2022/06/10 06:30:18;;;;;;;6.78;4.35;;;14.60;99.90;;;;;;4976548;28;20092;-81
2022/06/10 06:32:45;;;;;;;7.05;4.35;;;14.60;99.90;;;;;;4980211;28;20049;-81
2022/06/10 06:35:10;;;;;;;7.57;4.93;;;14.70;99.90;;;;;;4981239;28;20125;-83
2022/06/10 06:37:37;;;;;;;7.65;4.38;;;14.70;99.90;;;;;;4963816;28;20173;-82
2022/06/10 06:40:03;;;;;;;7.90;4.68;;;14.80;99.90;;;;;;4987056;28;20034;-82
2022/06/10 06:42:29;;;;;;;8.05;4.50;;;14.90;99.90;;;;;;4986887;28;20185;-82
2022/06/10 06:44:55;;;;;;;6.18;4.63;;;14.90;99.90;;;;;;4970345;28;20046;-81
2022/06/10 06:47:20;;;;;;;9.35;4.65;;;15.10;99.90;;;;;;4995297;28;20038;-82
2022/06/10 06:49:46;;;;;;;7.78;4.95;;;15.20;99.90;;;;;;4996742;28;20094;-82
2022/06/10 06:52:11;;;;;;;9.63;5.53;;;15.30;99.90;;;;;;4975337;28;20042;-84
2022/06/10 06:54:37;;;;;;;8.20;5.03;;;15.40;99.90;;;;;;4996114;28;20054;-84
2022/06/10 06:57:04;;;;;;;8.02;4.68;;;15.50;99.90;;;;;;5003115;28;20034;-83
2022/06/10 06:59:32;;;;;;;11.43;4.88;;;15.60;99.90;;;;;;4978644;28;20166;-85
2022/06/10 07:01:57;;;;;;;6.57;4.25;;;15.70;99.90;;;;;;4980668;28;20040;-82
2022/06/10 07:04:23;;;;;;;5.85;4.35;;;15.80;99.90;;;;;;4983769;28;20412;-82
2022/06/10 07:06:49;;;;;;;7.25;4.63;;;15.80;99.90;;;;;;4991158;28;20579;-82
2022/06/10 07:09:14;;;;;;;10.88;5.10;;;15.90;99.90;;;;;;4976345;28;20046;-82
2022/06/10 07:11:41;;;;;;;8.35;4.75;;;16.00;99.90;;;;;;4976424;28;20038;-83
2022/06/10 07:14:07;;;;;;;6.85;4.55;;;16.00;99.90;;;;;;4976295;28;20039;-83
2022/06/10 07:16:33;;;;;;;7.03;3.88;;;16.00;99.90;;;;;;4975475;28;20096;-83
2022/06/10 07:18:58;;;;;;;6.00;4.00;;;16.10;99.90;;;;;;4980611;28;20038;-83
2022/06/10 07:21:24;;;;;;;7.03;4.63;;;16.30;99.90;;;;;;4984419;28;20038;-79
2022/06/10 07:23:50;;;;;;;7.78;4.53;;;16.40;99.90;;;;;;5004878;28;20146;-83
2022/06/10 07:26:16;;;;;;;9.30;4.40;;;16.50;99.90;;;;;;4982145;28;20173;-82
2022/06/10 07:28:42;;;;;;;5.43;3.40;;;16.60;99.90;;;;;;4991949;28;20031;-82
2022/06/10 07:31:08;;;;;;;6.93;3.70;;;16.70;99.90;;;;;;4970332;28;20041;-82
2022/06/10 07:33:36;;;;;;;6.55;3.55;;;16.70;99.90;;;;;;4987143;28;20045;-82
2022/06/10 07:36:05;;;;;;;6.82;3.70;;;16.80;99.90;;;;;;4975918;28;20065;-82
2022/06/10 07:38:31;;;;;;;7.32;3.72;;;16.80;99.90;;;;;;4964187;28;20101;-82
2022/06/10 07:43:55;;;;;;;6.63;3.55;;;17.00;99.90;;;;;;4959828;28;20050;-82
2022/06/10 07:46:22;;;;;;;8.10;3.83;;;17.10;99.90;;;;;;4965810;28;20184;-82
2022/06/10 07:48:48;;;;;;;6.65;2.92;;;17.10;99.90;;;;;;4973882;28;20040;-82
2022/06/10 07:51:15;;;;;;;6.60;3.25;;;17.00;99.90;;;;;;4973546;28;20117;-82
2022/06/10 07:53:41;;;;;;;6.47;3.60;;;17.00;99.90;;;;;;4956818;28;20126;-82
2022/06/10 07:56:08;;;;;;;6.03;3.47;;;16.90;99.90;;;;;;4967100;28;20117;-82
2022/06/10 07:58:33;;;;;;;6.68;2.97;;;16.90;99.90;;;;;;4975722;28;20448;-82
2022/06/10 08:00:59;;;;;;;6.40;3.25;;;16.90;99.90;;;;;;4973636;28;20129;-82
2022/06/10 08:03:27;;;;;;;5.43;3.40;;;16.80;99.90;;;;;;4959558;28;20047;-82
2022/06/10 08:05:52;;;;;;;6.18;3.15;;;16.90;99.90;;;;;;4974578;28;20080;-82
2022/06/10 08:08:20;;;;;;;6.97;2.83;;;16.70;99.90;;;;;;4991223;28;20500;-82
2022/06/10 08:10:46;;;;;;;6.32;3.17;;;16.80;99.90;;;;;;4991959;28;20038;-84
2022/06/10 08:13:12;;;;;;;9.95;3.55;;;16.90;99.90;;;;;;4991591;28;20038;-82
2022/06/10 08:15:38;;;;;;;5.78;2.90;;;16.90;99.90;;;;;;4988388;28;20057;-82
2022/06/10 08:18:05;;;;;;;10.05;3.70;;;16.90;99.90;;;;;;4966158;28;20038;-82
2022/06/10 08:23:21;;;;;;;6.30;2.90;;;17.00;99.90;;;;;;4971782;28;20089;-82
2022/06/10 08:25:48;;;;;;;6.18;3.33;;;17.00;99.90;;;;;;4973082;28;20125;-82
2022/06/10 08:28:14;;;;;;;5.90;3.20;;;17.20;99.90;;;;;;4979919;28;20031;-83
2022/06/10 08:30:40;;;;;;;5.43;3.25;;;17.30;99.90;;;;;;4988217;28;20288;-82
2022/06/10 08:33:05;;;;;;;6.53;2.78;;;17.30;99.90;;;;;;4985811;28;20031;-82
2022/06/10 08:35:33;;;;;;;4.80;2.67;;;17.40;99.90;;;;;;4983026;28;20042;-82
2022/06/10 08:38:00;;;;;;;5.57;2.92;;;17.50;99.90;;;;;;4982969;28;20038;-82
2022/06/10 08:40:44;;;;;;;7.40;3.65;;;17.50;99.90;;;;;;4972912;28;20043;-82
2022/06/10 08:43:21;;;;;;;6.90;3.08;;;17.40;99.90;;;;;;4958987;28;20038;-83
2022/06/10 08:45:58;;;;;;;6.85;2.85;;;17.60;99.90;;;;;;4979833;28;20058;-82
2022/06/10 08:48:26;;;;;;;6.60;2.85;;;17.60;99.90;;;;;;4955687;28;20045;-82
2022/06/10 08:50:55;;;;;;;6.07;2.60;;;17.60;99.90;;;;;;4955210;28;20039;-82
2022/06/10 08:53:41;;;;;;;6.25;2.75;;;17.50;99.90;;;;;;4979570;28;20035;-83
2022/06/10 08:56:17;;;;;;;7.00;2.80;;;17.50;99.90;;;;;;4972182;28;20269;-82
2022/06/10 08:58:54;;;;;;;4.88;2.50;;;17.30;99.90;;;;;;4963175;28;20088;-81
2022/06/10 09:01:22;;;;;;;5.45;2.55;;;17.30;99.90;;;;;;4963621;28;20121;-82
2022/06/10 09:04:14;;;;;;;4.47;2.40;;;17.30;99.90;;;;;;4985791;28;20053;-81
2022/06/10 09:06:51;;;;;;;4.50;2.30;;;17.30;99.90;;;;;;4963541;28;20133;-82
2022/06/10 09:09:19;;;;;;;6.70;2.47;;;17.30;99.90;;;;;;4975145;28;20049;-82
2022/06/10 09:11:53;;;;;;;6.18;2.60;;;17.40;99.90;;;;;;4959266;28;20034;-82
2022/06/10 09:14:25;;;;;;;2.78;2.35;;;17.40;99.90;;;;;;4966419;28;20396;-83
2022/06/10 09:17:09;;;;;;;6.38;2.92;;;17.40;99.90;;;;;;4968319;28;20077;-82
2022/06/10 09:19:44;;;;;;;7.97;2.55;;;17.50;99.90;;;;;;4958813;28;20105;-82
2022/06/10 09:22:22;;;;;;;4.40;2.47;;;17.50;99.90;;;;;;4958958;28;20046;-83
2022/06/10 09:25:01;;;;;;;5.78;2.67;;;17.60;99.90;;;;;;4984873;28;20077;-81
2022/06/10 09:27:36;;;;;;;8.43;2.83;;;17.70;99.90;;;;;;4971780;28;20038;-83
2022/06/10 09:30:05;;;;;;;5.85;2.75;;;17.80;99.90;;;;;;4990063;28;20069;-83
2022/06/10 09:32:43;;;;;;;5.28;2.38;;;18.00;99.90;;;;;;4958564;28;20047;-83
2022/06/10 09:35:18;;;;;;;6.28;2.53;;;18.10;99.90;;;;;;4963333;28;20489;-83
2022/06/10 09:38:11;;;;;;;6.45;2.70;;;18.20;99.90;;;;;;4969737;28;20042;-83
2022/06/10 09:40:40;;;;;;;6.38;2.42;;;18.30;99.90;;;;;;4962458;28;20058;-83
2022/06/10 09:43:11;;;;;;;7.53;2.60;;;18.40;99.90;;;;;;4958650;28;20043;-82
2022/06/10 09:45:46;;;;;;;6.43;2.67;;;18.70;99.90;;;;;;4958512;28;20497;-82
2022/06/10 09:48:57;;;;;;;5.05;2.35;;;19.00;99.90;;;;;;4983404;28;20034;-83
2022/06/10 09:51:42;;;;;;;5.53;2.55;;;19.50;99.90;;;;;;4959517;28;20082;-81
2022/06/10 09:54:45;;;;;;;7.25;2.45;;;20.40;99.90;;;;;;4966558;28;20042;-81
2022/06/10 09:57:33;;;;;;;4.28;2.38;;;21.10;99.90;;;;;;4964366;28;20049;-81
2022/06/10 10:00:21;;;;;;;5.70;2.33;;;21.60;99.90;;;;;;4989373;28;20072;-81
2022/06/10 10:03:14;;;;;;;5.45;2.10;;;21.70;99.90;;;;;;4982977;28;20034;-80
2022/06/10 10:06:08;;;;;;;5.30;2.50;;;21.50;99.90;;;;;;4997623;28;20038;-81
2022/06/10 10:08:59;;;;;;;5.05;2.05;;;21.40;99.90;;;;;;4971147;28;20070;-81
2022/06/10 10:11:45;;;;;;;7.88;2.60;;;21.40;99.90;;;;;;4982782;28;20039;-81
2022/06/10 10:14:23;;;;;;;7.10;2.38;;;21.50;99.90;;;;;;5017755;28;20034;-80
2022/06/10 10:17:07;;;;;;;7.22;2.90;;;21.70;99.90;;;;;;4998310;28;20381;-80
2022/06/10 10:19:51;;;;;;;5.50;2.30;;;21.90;99.90;;;;;;4961153;28;20042;-81
2022/06/10 10:22:23;;;;;;;5.22;2.63;;;22.30;99.90;;;;;;4988929;28;20046;-80
2022/06/10 10:24:49;;;;;;;6.65;2.63;;;22.70;99.90;;;;;;4970926;28;20058;-81
2022/06/10 10:27:22;;;;;;;4.05;2.30;;;22.80;99.90;;;;;;4980114;28;20039;-80
2022/06/10 10:29:53;;;;;;;;;;;22.70;99.90;;;;;;4971148;28;20053;-81
2022/06/10 10:32:27;;;;;;;6.32;2.70;;;22.90;99.90;;;;;;4975834;28;19968;-81
2022/06/10 10:35:04;;;;;;;5.57;2.42;;;23.10;99.90;;;;;;4979287;28;20080;-80
2022/06/10 10:37:35;;;;;;;4.75;2.72;;;23.20;99.90;;;;;;4976436;28;20030;-81
2022/06/10 10:40:16;;;;;;;5.85;2.55;;;23.20;99.90;;;;;;4972240;28;20034;-80
2022/06/10 10:42:44;;;;;;;5.47;2.42;;;23.10;99.90;;;;;;4977058;28;20166;-81
2022/06/10 10:45:20;;;;;;;6.07;2.10;;;22.70;99.90;;;;;;4995422;28;20056;-81
2022/06/10 10:48:14;;;;;;;6.50;3.00;;;22.50;99.90;;;;;;5002436;28;20037;-81
2022/06/10 10:50:47;;;;;;;7.63;2.58;;;22.30;99.90;;;;;;4983335;28;20038;-80
2022/06/10 10:53:36;;;;;;;6.60;2.55;;;22.10;99.90;;;;;;4985273;28;20038;-80
2022/06/10 10:56:04;;;;;;;6.75;2.38;;;21.90;99.90;;;;;;4992578;28;20492;-81
2022/06/10 10:58:59;;;;;;;10.15;2.20;;;21.80;99.90;;;;;;4992933;28;20074;-80
2022/06/10 11:01:43;;;;;;;5.85;2.30;;;22.00;99.90;;;;;;4960805;28;20141;-83
2022/06/10 11:04:30;;;;;;;4.93;2.20;;;22.00;99.90;;;;;;4987695;28;20060;-83
2022/06/10 11:07:03;;;;;;;4.68;2.10;;;22.00;99.90;;;;;;4981410;28;20562;-82
2022/06/10 11:09:29;;;;;;;3.38;1.75;;;22.30;99.90;;;;;;4987719;28;20049;-82
2022/06/10 11:11:57;;;;;;;7.60;2.25;;;22.50;99.90;;;;;;5012037;28;20033;-82
2022/06/10 11:14:31;;;;;;;4.70;2.03;;;22.30;99.90;;;;;;4986556;28;20076;-81
2022/06/10 11:17:15;;;;;;;7.28;2.08;;;22.00;99.90;;;;;;4986262;28;20038;-83
2022/06/10 11:19:58;;;;;;;7.32;2.22;;;21.70;99.90;;;;;;4980721;28;20099;-84
2022/06/10 11:22:23;;;;;;;3.40;1.88;;;21.90;99.90;;;;;;4974692;28;20133;-83
2022/06/10 11:25:03;;;;;;;5.47;1.80;;;22.20;99.90;;;;;;4994432;28;20130;-83
2022/06/10 11:27:39;;;;;;;4.93;2.05;;;22.40;99.90;;;;;;4999675;28;20041;-83
2022/06/10 11:30:15;;;;;;;4.43;2.15;;;22.80;99.90;;;;;;4995016;28;20040;-83
2022/06/10 11:32:49;;;;;;;4.75;1.60;;;23.10;99.90;;;;;;4972116;28;20034;-83
2022/06/10 11:35:27;;;;;;;4.07;1.70;;;22.90;99.90;;;;;;4968146;28;20035;-84
2022/06/10 11:37:57;;;;;;;5.30;1.83;;;22.60;99.90;;;;;;4986986;28;20065;-83
2022/06/10 11:40:34;;;;;;;5.47;1.92;;;22.40;99.90;;;;;;4981706;28;20133;-86
2022/06/10 11:43:06;;;;;;;4.32;1.85;;;22.50;99.90;;;;;;4982786;28;20527;-82
2022/06/10 11:45:39;;;;;;;5.07;2.17;;;22.50;99.90;;;;;;4968122;28;20034;-83
2022/06/10 11:48:13;;;;;;;4.22;1.98;;;22.50;99.90;;;;;;4987432;28;20038;-83
2022/06/10 11:50:50;;;;;;;5.43;2.05;;;22.30;99.90;;;;;;4981958;28;20384;-82
2022/06/10 11:53:27;;;;;;;6.65;2.33;;;22.10;99.90;;;;;;4987578;28;20025;-82
2022/06/10 11:59:42;;;;;;;5.20;1.80;;;21.90;99.90;;;;;;4988017;28;20304;-81
2022/06/10 12:01:36;;;;;;;4.32;1.88;;;21.60;99.90;;;;;;5002630;28;20061;-81
2022/06/10 12:04:12;;;;;;;6.65;2.33;;;21.60;99.90;;;;;;4956405;28;20174;-80
2022/06/10 12:06:51;;;;;;;5.20;2.17;;;21.50;99.90;;;;;;4956343;28;20421;-81
2022/06/10 12:09:26;;;;;;;3.85;1.90;;;21.40;99.90;;;;;;4992668;28;20052;-81
2022/06/10 12:12:11;;;;;;;4.18;1.75;;;21.40;99.90;;;;;;5005616;28;20460;-79
2022/06/10 12:14:50;;;;;;;4.70;2.45;;;21.50;99.90;;;;;;5011476;28;20050;-81
2022/06/10 12:17:35;;;;;;;5.28;2.63;;;21.70;99.90;;;;;;4979526;28;20045;-80
2022/06/10 12:20:18;;;;;;;4.75;2.55;;;21.80;99.90;;;;;;4975594;28;20042;-78
2022/06/10 12:22:44;;;;;;;5.15;2.22;;;21.80;99.90;;;;;;5007745;28;20038;-80
2022/06/10 12:25:33;;;;;;;8.38;2.63;;;21.90;99.90;;;;;;4982774;28;20050;-80
2022/06/10 12:28:08;;;;;;;5.82;2.83;;;22.00;99.90;;;;;;4999537;28;20038;-79
2022/06/10 12:30:47;;;;;;;6.25;2.97;;;22.20;99.90;;;;;;4970632;28;20035;-79
2022/06/10 12:33:22;;;;;;;8.55;3.65;;;22.40;99.90;;;;;;4981012;28;20576;-79
2022/06/10 12:35:49;;;;;;;6.05;2.60;;;22.40;99.90;;;;;;4986020;28;20092;-82
2022/06/10 12:38:17;;;;;;;3.83;2.80;;;22.40;99.90;;;;;;4990392;28;20488;-78
2022/06/10 12:41:06;;;;;;;4.90;2.30;;;22.30;99.90;;;;;;4995424;28;20049;-80
2022/06/10 12:43:36;;;;;;;6.28;2.60;;;22.10;99.90;;;;;;4974133;28;20050;-81
2022/06/10 12:46:15;;;;;;;5.10;2.70;;;22.00;99.90;;;;;;4983813;28;20038;-81
2022/06/10 12:48:47;;;;;;;4.05;2.45;;;21.90;99.90;;;;;;4978101;28;20065;-78
2022/06/10 12:51:12;;;;;;;3.88;2.72;;;21.90;99.90;;;;;;4995936;28;20117;-83
2022/06/10 12:53:56;;;;;;;4.55;2.85;;;22.00;99.90;;;;;;4976472;28;20113;-81
2022/06/10 12:56:31;;;;;;;4.95;2.50;;;22.20;99.90;;;;;;5001196;28;20046;-80
2022/06/10 12:59:14;;;;;;;4.55;2.70;;;22.40;99.90;;;;;;4967476;28;20509;-81
2022/06/10 13:01:44;;;;;;;5.60;3.20;;;22.80;99.90;;;;;;4960193;28;20557;-81
2022/06/10 13:04:25;;;;;;;5.90;3.05;;;23.10;99.90;;;;;;4970839;28;20092;-81
2022/06/10 13:06:57;;;;;;;5.25;3.13;;;23.20;99.90;;;;;;4978370;28;20432;-81
2022/06/10 13:09:35;;;;;;;7.38;2.95;;;23.40;99.90;;;;;;4969811;28;20035;-81
2022/06/10 13:12:37;;;;;;;5.65;2.78;;;23.90;99.90;;;;;;4967057;28;20042;-81
2022/06/10 13:15:22;;;;;;;6.32;2.80;;;24.00;99.90;;;;;;4959134;28;20046;-81
2022/06/10 13:18:00;;;;;;;6.68;2.97;;;23.80;99.90;;;;;;4958965;28;20050;-80
2022/06/10 13:20:27;;;;;;;5.50;2.85;;;23.60;99.90;;;;;;4972333;28;20042;-81
2022/06/10 13:23:14;;;;;;;4.57;2.97;;;23.30;99.90;;;;;;4964729;28;20038;-82
2022/06/10 13:25:42;;;;;;;5.05;3.30;;;23.00;99.90;;;;;;4977658;28;20555;-81
2022/06/10 13:28:23;;;;;;;4.65;2.70;;;23.30;99.90;;;;;;4998902;28;20117;-81
2022/06/10 13:30:51;;;;;;;5.10;3.33;;;23.40;99.90;;;;;;4997544;28;20077;-81
2022/06/10 13:33:18;;;;;;;6.70;3.10;;;23.20;99.90;;;;;;5002787;28;20039;-82
2022/06/10 13:35:43;;;;;;;6.55;3.25;;;23.00;99.90;;;;;;4974428;28;20050;-82
2022/06/10 13:38:17;;;;;;;7.60;3.15;;;22.90;99.90;;;;;;4989570;28;20038;-81
2022/06/10 13:41:48;;;;;;;5.32;3.00;;;23.20;99.90;;;;;;4977373;28;20462;-81
2022/06/10 13:43:45;;;;;;;4.45;2.38;;;23.50;99.90;;;;;;4996211;28;20137;-83
2022/06/10 13:46:33;;;;;;;5.25;1.95;;;24.10;99.90;;;;;;4976290;28;20062;-83
2022/06/10 13:49:18;;;;;;;4.43;1.95;;;24.80;99.90;;;;;;4979119;28;20046;-81
2022/06/10 13:51:51;;;;;;;3.03;1.55;;;25.70;99.90;;;;;;4990024;28;20496;-81
2022/06/10 13:54:23;;;;;;;3.15;1.85;;;26.30;99.90;;;;;;4964117;28;20026;-81
2022/06/10 13:56:50;;;;;;;3.53;1.65;;;26.80;99.90;;;;;;4980787;28;20034;-82
2022/06/10 13:59:31;;;;;;;3.67;1.40;;;27.20;99.90;;;;;;4979785;28;20073;-81